Time;durP1;ratioP1;P1;durP2;ratioP2;P2;SDS_P1;SDS_P2;PMS_P1;PMS_P2;Temp;Humidity;BMP_temperature;BMP_pressure;BME280_temperature;BME280_humidity;BME280_pressure;Samples;Min_cycle;Max_cycle;Signal;HPM_P1;HPM_P2
2021/06/01 00:01:45;;;;;;;5.92;2.47;;;;;;;13.66;68.29;100626.66;1749380;82;21002;-67
2021/06/01 00:04:12;;;;;;;2.72;2.50;;;;;;;13.68;68.33;100622.95;1748616;82;21375;-67
2021/06/01 00:06:39;;;;;;;3.22;2.72;;;;;;;13.71;67.97;100618.41;1749441;82;20933;-66
2021/06/01 00:09:09;;;;;;;5.20;3.67;;;;;;;13.70;67.84;100616.27;1749387;82;21075;-67
2021/06/01 00:11:36;;;;;;;3.55;3.15;;;;;;;13.69;67.79;100618.52;1749321;82;20910;-68
2021/06/01 00:14:05;;;;;;;3.60;2.83;;;;;;;13.68;67.83;100611.58;1749412;82;20977;-67
2021/06/01 00:16:32;;;;;;;5.08;3.12;;;;;;;13.63;67.86;100611.91;1749426;82;21407;-66
2021/06/01 00:18:58;;;;;;;3.65;2.58;;;;;;;13.58;68.01;100607.44;1749419;82;20866;-66
2021/06/01 00:21:25;;;;;;;3.35;2.47;;;;;;;13.55;68.22;100606.35;1749422;82;21555;-66
2021/06/01 00:23:54;;;;;;;3.62;2.65;;;;;;;13.56;68.53;100604.09;1749406;82;20922;-68
2021/06/01 00:26:21;;;;;;;2.95;2.65;;;;;;;13.57;68.71;100607.57;1749354;82;20846;-66
2021/06/01 00:28:50;;;;;;;7.08;4.75;;;;;;;13.58;68.74;100603.48;1749294;82;20922;-67
2021/06/01 00:31:17;;;;;;;4.87;3.45;;;;;;;13.58;68.61;100599.53;1749403;82;20902;-67
2021/06/01 00:33:43;;;;;;;4.62;3.12;;;;;;;13.55;68.52;100593.66;1749490;82;21046;-66
2021/06/01 00:36:10;;;;;;;2.90;2.62;;;;;;;13.50;68.79;100589.22;1749255;82;21396;-67
2021/06/01 00:38:37;;;;;;;5.08;2.98;;;;;;;13.43;69.32;100587.02;1749517;82;20907;-67
2021/06/01 00:41:05;;;;;;;3.60;2.65;;;;;;;13.41;69.64;100595.50;1749421;82;21530;-70
2021/06/01 00:43:33;;;;;;;3.55;3.08;;;;;;;13.40;69.89;100588.53;1749376;82;20899;-67
2021/06/01 00:46:01;;;;;;;5.30;3.70;;;;;;;13.39;70.33;100589.98;1749551;80;21391;-67
2021/06/01 00:48:28;;;;;;;7.85;3.25;;;;;;;13.34;70.42;100595.59;1749497;80;20932;-68
2021/06/01 00:50:55;;;;;;;5.97;4.47;;;;;;;13.31;70.84;100586.58;1721401;82;20997;-68
2021/06/01 00:53:22;;;;;;;4.85;3.17;;;;;;;13.27;71.26;100587.25;1719654;83;21431;-67
2021/06/01 00:55:49;;;;;;;4.08;3.60;;;;;;;13.24;71.45;100586.14;1719659;82;20863;-67
2021/06/01 00:58:16;;;;;;;4.95;3.25;;;;;;;13.20;71.62;100592.57;1708842;83;21632;-66
2021/06/01 01:03:28;;;;;;;4.08;3.27;;;;;;;13.11;72.13;100593.71;1706910;83;20907;-65
2021/06/01 01:06:03;;;;;;;4.47;3.20;;;;;;;13.12;72.53;100600.20;1706673;83;21451;-65
2021/06/01 01:11:13;;;;;;;7.25;3.80;;;;;;;13.16;72.61;100600.35;1643947;85;20930;-68
2021/06/01 01:14:00;;;;;;;4.87;4.08;;;;;;;13.18;72.81;100601.53;1706051;84;21388;-67
2021/06/01 01:16:29;;;;;;;4.47;3.55;;;;;;;13.18;72.76;100593.16;1705988;84;20907;-68
2021/06/01 01:19:01;;;;;;;6.92;3.55;;;;;;;13.19;72.63;100593.53;1705946;83;21029;-67
2021/06/01 01:21:40;;;;;;;4.15;3.25;;;;;;;13.20;72.47;100587.78;1706066;84;20934;-67
2021/06/01 01:24:35;;;;;;;5.03;3.58;;;;;;;13.19;72.47;100591.39;1704637;83;21043;-68
2021/06/01 01:27:17;;;;;;;5.75;3.47;;;;;;;13.17;72.78;100585.38;1706006;84;20974;-66
2021/06/01 01:29:46;;;;;;;5.17;4.37;;;;;;;13.13;72.87;100582.12;1706022;83;20982;-67
2021/06/01 01:32:27;;;;;;;4.22;3.77;;;;;;;13.11;72.95;100584.50;1706034;84;20922;-68
2021/06/01 01:34:55;;;;;;;6.37;3.85;;;;;;;13.09;73.33;100576.70;1695907;83;20907;-68
2021/06/01 01:37:22;;;;;;;5.20;3.90;;;;;;;13.08;73.69;100575.52;1686178;84;21747;-68
2021/06/01 01:39:51;;;;;;;5.17;3.40;;;;;;;13.09;73.67;100567.97;1706038;84;20907;-69
2021/06/01 01:42:18;;;;;;;8.28;4.17;;;;;;;13.07;73.84;100572.02;1706082;84;21377;-68
2021/06/01 01:44:53;;;;;;;4.70;3.27;;;;;;;13.05;73.97;100568.20;1706017;84;21129;-67
2021/06/01 01:50:02;;;;;;;4.53;4.05;;;;;;;13.00;74.33;100562.87;1706000;84;21080;-67
2021/06/01 01:52:29;;;;;;;4.62;3.92;;;;;;;12.99;74.52;100563.84;1705884;84;20951;-67
2021/06/01 01:54:57;;;;;;;6.17;3.83;;;;;;;13.02;74.55;100564.93;1706015;83;20986;-68
2021/06/01 01:57:23;;;;;;;4.25;3.85;;;;;;;13.05;74.53;100556.83;1709860;83;21045;-68
2021/06/01 01:59:50;;;;;;;5.40;3.92;;;;;;;13.06;74.61;100557.19;1719595;83;20898;-67
2021/06/01 02:02:18;;;;;;;4.20;3.47;;;;;;;13.06;74.55;100554.55;1719382;83;21430;-67
2021/06/01 02:04:45;;;;;;;7.37;4.08;;;;;;;13.03;74.72;100547.72;1719523;83;21013;-68
2021/06/01 02:07:12;;;;;;;5.50;4.12;;;;;;;13.03;74.73;100547.72;1719674;83;20903;-67
2021/06/01 02:11:54;;;;;;;7.90;4.55;;;;;;;13.06;74.66;100543.54;1776613;79;22524;-68
2021/06/01 02:14:21;;;;;;;5.42;3.90;;;;;;;13.00;74.91;100541.82;1749390;82;20883;-67
2021/06/01 02:16:50;;;;;;;5.87;3.35;;;;;;;12.98;74.94;100538.00;1749360;82;21434;-68
2021/06/01 02:19:20;;;;;;;7.22;4.58;;;;;;;12.97;74.87;100535.47;1749187;82;20970;-68
2021/06/01 02:22:07;;;;;;;6.87;3.20;;;;;;;12.94;75.17;100535.67;1749189;82;20970;-68
2021/06/01 02:24:43;;;;;;;3.72;3.42;;;;;;;12.91;75.34;100532.78;1747406;82;21005;-69
2021/06/01 02:27:40;;;;;;;4.65;3.90;;;;;;;12.91;75.42;100530.16;1749259;82;21512;-68
2021/06/01 02:30:11;;;;;;;4.87;3.50;;;;;;;12.89;75.38;100533.37;1749229;82;21084;-67
2021/06/01 02:32:52;;;;;;;6.03;3.95;;;;;;;12.87;75.37;100533.95;1749167;82;20938;-67
2021/06/01 02:35:29;;;;;;;3.75;3.37;;;;;;;12.82;75.62;100538.70;1749262;82;20898;-69
2021/06/01 02:38:00;;;;;;;3.00;2.75;;;;;;;12.77;75.79;100528.51;1749223;82;20993;-69
2021/06/01 02:40:27;;;;;;;4.53;3.00;;;;;;;12.72;75.89;100521.91;1749234;81;21443;-68
2021/06/01 02:42:54;;;;;;;3.35;2.92;;;;;;;12.68;76.14;100529.16;1749340;82;21103;-68
2021/06/01 02:45:22;;;;;;;6.37;3.12;;;;;;;12.65;76.11;100523.64;1749265;82;21003;-69
2021/06/01 02:47:49;;;;;;;4.50;2.92;;;;;;;12.61;76.18;100522.66;1749157;82;21502;-68
2021/06/01 02:50:18;;;;;;;6.22;3.55;;;;;;;12.58;76.43;100519.77;1749215;82;20986;-69
2021/06/01 02:52:46;;;;;;;5.62;3.60;;;;;;;12.58;76.62;100520.22;1749246;82;20894;-68
2021/06/01 02:55:16;;;;;;;4.72;3.22;;;;;;;12.57;76.94;100515.44;1749305;82;21005;-68
2021/06/01 02:57:43;;;;;;;4.70;3.37;;;;;;;12.57;77.10;100515.44;1749241;80;20926;-67
2021/06/01 03:00:15;;;;;;;4.25;3.08;;;;;;;12.53;77.00;100510.50;1749351;82;20970;-67
2021/06/01 03:02:42;;;;;;;3.30;3.00;;;;;;;12.52;77.14;100509.67;1748871;81;20925;-67
2021/06/01 03:05:11;;;;;;;5.87;2.72;;;;;;;12.52;77.49;100509.67;1749341;82;21423;-67
2021/06/01 03:07:41;;;;;;;6.50;3.50;;;;;;;12.49;77.58;100506.40;1749178;81;20985;-67
2021/06/01 03:10:12;;;;;;;3.85;2.67;;;;;;;12.47;77.81;100506.98;1749293;81;21572;-67
2021/06/01 03:12:49;;;;;;;3.85;2.50;;;;;;;12.46;77.96;100511.41;1749922;82;21510;-67
2021/06/01 03:15:14;;;;;;;3.72;2.40;;;;;;;12.47;78.04;100508.30;1749791;82;21503;-67
2021/06/01 03:17:42;;;;;;;8.50;3.20;;;;;;;12.47;78.11;100511.75;1750158;82;20890;-68
2021/06/01 03:20:10;;;;;;;3.62;2.52;;;;;;;12.48;78.18;100504.73;1749960;82;21029;-68
2021/06/01 03:22:37;;;;;;;6.25;3.17;;;;;;;12.50;78.09;100507.62;1749626;82;21490;-68
2021/06/01 03:25:04;;;;;;;5.50;2.90;;;;;;;12.51;78.26;100506.66;1749555;82;20846;-68
2021/06/01 03:27:31;;;;;;;7.28;2.83;;;;;;;12.52;78.48;100499.62;1749470;82;20959;-67
2021/06/01 03:29:58;;;;;;;3.98;2.20;;;;;;;12.54;78.50;100495.94;1749537;82;21009;-68
2021/06/01 03:32:25;;;;;;;7.90;3.35;;;;;;;12.55;78.29;100495.45;1749420;82;21407;-67
2021/06/01 03:34:52;;;;;;;3.60;2.45;;;;;;;12.57;78.56;100496.19;1749314;82;21471;-68
2021/06/01 03:37:20;;;;;;;4.65;2.45;;;;;;;12.57;78.26;100495.71;1749407;82;21502;-68
2021/06/01 03:39:47;;;;;;;3.30;2.17;;;;;;;12.56;78.46;100487.92;1749512;82;21033;-68
2021/06/01 03:42:13;;;;;;;6.17;2.80;;;;;;;12.56;78.57;100493.18;1749416;82;20898;-67
2021/06/01 03:44:42;;;;;;;6.15;3.20;;;;;;;12.55;78.60;100484.45;1749219;80;21955;-68
2021/06/01 03:47:08;;;;;;;5.22;3.77;;;;;;;12.61;78.98;100481.88;1749358;82;21514;-67
2021/06/01 03:49:35;;;;;;;4.53;2.75;;;;;;;12.68;78.55;100493.64;1749561;82;20883;-67
2021/06/01 03:52:08;;;;;;;6.10;3.20;;;;;;;12.72;78.70;100488.53;1749438;82;21025;-68
2021/06/01 03:54:38;;;;;;;4.55;3.00;;;;;;;12.80;78.61;100489.29;1749426;82;20886;-66
2021/06/01 03:57:12;;;;;;;4.67;2.50;;;;;;;12.84;78.31;100495.53;1749380;82;21496;-67
2021/06/01 03:59:39;;;;;;;3.47;2.60;;;;;;;12.88;78.32;100495.34;1749487;82;20958;-67
2021/06/01 04:02:07;;;;;;;5.08;3.05;;;;;;;12.88;78.10;100494.02;1749442;82;21021;-66
2021/06/01 04:04:35;;;;;;;3.45;2.98;;;;;;;12.88;78.02;100492.70;1749488;82;20946;-67
2021/06/01 04:07:03;;;;;;;4.72;2.70;;;;;;;12.88;77.90;100495.34;1749509;82;20918;-67
2021/06/01 04:09:32;;;;;;;3.40;2.92;;;;;;;12.88;78.03;100497.97;1749482;82;21172;-67
2021/06/01 04:11:59;;;;;;;5.72;3.40;;;;;;;12.87;78.06;100495.78;1749194;82;21546;-67
2021/06/01 04:14:26;;;;;;;3.42;2.83;;;;;;;12.90;78.04;100496.91;1749494;82;20918;-68
2021/06/01 04:16:57;;;;;;;3.20;2.90;;;;;;;12.91;77.98;100496.42;1749261;82;20870;-68
2021/06/01 04:19:24;;;;;;;4.30;3.47;;;;;;;12.93;78.05;100497.16;1749452;82;20965;-67
2021/06/01 04:21:52;;;;;;;3.95;3.40;;;;;;;12.93;78.03;100489.25;1749465;82;21024;-68
2021/06/01 04:24:26;;;;;;;5.08;3.45;;;;;;;12.96;77.96;100498.23;1749375;82;21009;-68
2021/06/01 04:26:50;;;;;;;5.53;3.47;;;;;;;12.99;77.53;100495.41;1749025;82;20894;-68
2021/06/01 04:29:17;;;;;;;7.08;3.95;;;;;;;12.96;77.51;100494.28;1749490;81;21021;-68
2021/06/01 04:31:44;;;;;;;5.12;3.85;;;;;;;12.93;77.62;100494.03;1749518;82;20957;-67
2021/06/01 04:34:10;;;;;;;5.08;3.42;;;;;;;12.93;77.62;100487.45;1749530;82;21054;-67
2021/06/01 04:36:38;;;;;;;4.83;3.55;;;;;;;12.94;77.88;100492.23;1749276;82;20985;-67
2021/06/01 04:39:05;;;;;;;7.05;4.10;;;;;;;12.93;77.70;100490.09;1749421;82;20875;-68
2021/06/01 04:41:32;;;;;;;4.75;3.98;;;;;;;12.92;77.75;100491.05;1749739;82;20910;-68
2021/06/01 04:43:59;;;;;;;5.45;4.35;;;;;;;12.90;77.51;100490.80;1750742;82;20981;-66
2021/06/01 04:46:25;;;;;;;5.40;4.05;;;;;;;12.85;77.61;100494.60;1750671;82;21059;-67
2021/06/01 04:48:52;;;;;;;6.60;3.90;;;;;;;12.84;77.86;100488.95;1750640;81;20882;-68
2021/06/01 04:51:19;;;;;;;4.78;3.40;;;;;;;12.85;77.78;100486.70;1750706;82;20978;-67
2021/06/01 04:53:55;;;;;;;9.80;3.80;;;;;;;12.85;77.81;100491.97;1750857;82;21538;-68
2021/06/01 04:56:23;;;;;;;5.58;3.60;;;;;;;12.85;77.77;100489.82;1749738;82;20918;-67
2021/06/01 04:58:50;;;;;;;4.50;3.15;;;;;;;12.85;77.84;100494.60;1749386;82;21068;-67
2021/06/01 05:01:17;;;;;;;5.72;3.55;;;;;;;12.84;77.60;100481.06;1749247;82;21474;-68
2021/06/01 05:03:44;;;;;;;5.42;4.03;;;;;;;12.83;77.85;100482.03;1749489;82;20871;-68
2021/06/01 05:06:13;;;;;;;5.60;3.85;;;;;;;12.85;77.77;100482.76;1749358;82;21375;-67
2021/06/01 05:08:40;;;;;;;4.90;3.35;;;;;;;12.86;77.60;100491.48;1749383;82;20926;-67
2021/06/01 05:11:09;;;;;;;4.33;3.90;;;;;;;12.88;77.97;100483.02;1749140;80;22589;-69
2021/06/01 05:13:36;;;;;;;3.35;2.95;;;;;;;12.91;77.64;100484.58;1749268;82;20887;-68
2021/06/01 05:16:03;;;;;;;5.72;3.40;;;;;;;12.91;77.68;100484.09;1749413;80;20843;-70
2021/06/01 05:18:32;;;;;;;6.37;3.37;;;;;;;12.90;77.41;100488.17;1749340;80;21332;-67
2021/06/01 05:20:59;;;;;;;6.37;3.47;;;;;;;12.88;77.62;100483.49;1749256;82;20962;-70
2021/06/01 05:23:26;;;;;;;4.65;3.37;;;;;;;12.86;77.54;100487.06;1749275;82;21823;-69
2021/06/01 05:25:55;;;;;;;3.75;3.33;;;;;;;12.85;77.62;100489.34;1749354;82;20930;-68
2021/06/01 05:28:21;;;;;;;9.70;3.80;;;;;;;12.84;77.62;100487.64;1749375;80;20886;-68
2021/06/01 05:31:00;;;;;;;7.50;3.70;;;;;;;12.83;77.76;100486.45;1749290;81;21507;-68
2021/06/01 05:33:19;;;;;;;4.67;3.33;;;;;;;12.82;77.65;100480.81;1747284;82;20989;-68
2021/06/01 05:35:53;;;;;;;2.77;2.52;;;;;;;12.81;77.87;100488.35;1749572;82;21098;-70
2021/06/01 05:38:21;;;;;;;6.00;3.33;;;;;;;12.79;77.77;100481.88;1749404;82;21013;-71
2021/06/01 05:40:48;;;;;;;6.70;3.55;;;;;;;12.79;77.79;100484.98;1749161;82;21494;-73
2021/06/01 05:43:16;;;;;;;7.25;4.15;;;;;;;12.76;78.08;100482.11;1749317;82;20938;-72
2021/06/01 05:45:44;;;;;;;5.03;3.35;;;;;;;12.75;78.23;100480.89;1749374;80;20925;-72
2021/06/01 05:48:11;;;;;;;9.00;4.42;;;;;;;12.76;78.41;100472.03;1749486;82;21010;-72
2021/06/01 05:50:38;;;;;;;4.80;3.90;;;;;;;12.77;78.25;100477.67;1749218;80;21445;-71
2021/06/01 05:53:06;;;;;;;5.50;3.40;;;;;;;12.76;78.44;100474.22;1749345;82;20910;-69
2021/06/01 05:55:33;;;;;;;5.85;3.65;;;;;;;12.74;78.50;100481.37;1749444;80;20898;-70
2021/06/01 05:58:00;;;;;;;4.47;3.05;;;;;;;12.71;78.63;100481.57;1749279;80;21470;-72
2021/06/01 06:00:28;;;;;;;3.87;3.00;;;;;;;12.72;78.76;100481.95;1749504;82;21681;-71
2021/06/01 06:02:55;;;;;;;5.00;2.72;;;;;;;12.75;78.79;100473.83;1749257;82;20902;-71
2021/06/01 06:05:22;;;;;;;3.42;2.80;;;;;;;12.77;78.41;100471.94;1749388;80;20886;-71
2021/06/01 06:07:49;;;;;;;5.45;3.85;;;;;;;12.80;78.56;100481.39;1749286;82;20902;-71
2021/06/01 06:10:17;;;;;;;4.12;3.35;;;;;;;12.83;78.65;100469.35;1749402;82;21009;-70
2021/06/01 06:12:43;;;;;;;6.08;2.98;;;;;;;12.86;78.50;100473.90;1749214;82;21056;-71
2021/06/01 06:15:15;;;;;;;5.70;3.30;;;;;;;12.88;78.44;100475.59;1749359;81;20890;-73
2021/06/01 06:17:55;;;;;;;5.08;3.25;;;;;;;12.86;78.37;100484.91;1749375;82;20918;-70
2021/06/01 06:20:22;;;;;;;6.20;3.37;;;;;;;12.81;78.18;100473.40;1749265;82;21037;-70
2021/06/01 06:22:48;;;;;;;8.83;4.08;;;;;;;12.78;78.34;100475.39;1749436;82;20986;-70
2021/06/01 06:25:15;;;;;;;5.33;3.00;;;;;;;12.74;78.42;100468.67;1749336;80;21065;-73
2021/06/01 06:27:42;;;;;;;3.33;3.02;;;;;;;12.74;78.46;100473.92;1749296;80;21010;-73
2021/06/01 06:30:10;;;;;;;6.45;3.22;;;;;;;12.68;78.51;100466.02;1749406;82;21439;-73
2021/06/01 06:32:37;;;;;;;5.87;3.67;;;;;;;12.65;78.82;100473.66;1749171;82;21549;-72
2021/06/01 06:35:07;;;;;;;3.92;3.20;;;;;;;12.67;78.76;100474.84;1749392;82;20942;-72
2021/06/01 06:37:34;;;;;;;5.42;2.95;;;;;;;12.70;79.13;100469.38;1749257;82;21086;-73
2021/06/01 06:40:02;;;;;;;3.75;2.85;;;;;;;12.75;79.26;100472.52;1749194;82;21491;-72
2021/06/01 06:42:29;;;;;;;6.83;1.95;;;;;;;12.80;79.29;100472.19;1749232;80;20986;-72
2021/06/01 06:44:56;;;;;;;4.70;2.60;;;;;;;12.84;78.98;100465.75;1749337;82;20919;-72
2021/06/01 06:47:41;;;;;;;3.95;2.55;;;;;;;12.85;78.98;100466.13;1749276;82;21383;-71
2021/06/01 06:49:58;;;;;;;2.98;2.33;;;;;;;12.88;78.92;100467.22;1699837;82;21677;-72
2021/06/01 06:52:25;;;;;;;5.42;3.50;;;;;;;12.88;78.71;100468.53;1749205;80;20930;-72
2021/06/01 06:54:52;;;;;;;2.40;2.17;;;;;;;12.91;78.89;100470.94;1749300;82;21387;-71
2021/06/01 06:57:19;;;;;;;2.30;1.98;;;;;;;12.94;78.82;100465.92;1749379;82;21005;-73
2021/06/01 06:59:46;;;;;;;3.47;2.62;;;;;;;12.97;78.85;100466.55;1749610;82;21374;-73
2021/06/01 07:02:12;;;;;;;5.75;2.60;;;;;;;13.01;78.81;100472.45;1749378;82;21134;-71
2021/06/01 07:04:39;;;;;;;3.83;2.87;;;;;;;13.04;78.66;100470.89;1749464;80;21092;-71
2021/06/01 07:07:06;;;;;;;5.12;2.50;;;;;;;13.08;78.55;100471.03;1749512;82;20926;-71
2021/06/01 07:09:37;;;;;;;2.52;2.30;;;;;;;13.11;78.76;100466.85;1749439;80;20914;-69
2021/06/01 07:12:02;;;;;;;2.72;2.52;;;;;;;13.14;78.69;100461.38;1749061;80;21061;-69
2021/06/01 07:14:42;;;;;;;4.60;2.60;;;;;;;13.19;78.50;100468.94;1749450;82;21086;-69
2021/06/01 07:17:09;;;;;;;4.85;2.72;;;;;;;13.23;78.56;100467.77;1749091;82;20930;-69
2021/06/01 07:19:37;;;;;;;3.65;2.75;;;;;;;13.29;78.40;100463.86;1749408;82;20981;-70
2021/06/01 07:22:04;;;;;;;6.70;3.05;;;;;;;13.31;78.29;100463.27;1749537;80;20926;-70
2021/06/01 07:24:31;;;;;;;3.37;2.52;;;;;;;13.34;78.36;100469.16;1749427;82;20870;-69
2021/06/01 07:26:58;;;;;;;2.35;2.15;;;;;;;13.37;78.25;100464.14;1749297;82;21640;-68
2021/06/01 07:29:26;;;;;;;5.35;3.20;;;;;;;13.38;78.16;100462.69;1749091;82;20922;-68
2021/06/01 07:31:54;;;;;;;3.27;2.75;;;;;;;13.39;78.03;100462.23;1749438;82;21399;-69
2021/06/01 07:34:21;;;;;;;3.37;2.75;;;;;;;13.40;77.94;100465.22;1749368;82;20930;-69
2021/06/01 07:36:50;;;;;;;2.47;2.27;;;;;;;13.39;78.28;100463.55;1749345;82;21431;-70
2021/06/01 07:39:17;;;;;;;5.42;3.22;;;;;;;13.41;78.14;100464.28;1749376;80;20981;-68
2021/06/01 07:41:44;;;;;;;2.90;2.55;;;;;;;13.43;78.10;100468.48;1749411;82;20929;-69
2021/06/01 07:44:11;;;;;;;6.95;2.60;;;;;;;13.44;78.21;100465.36;1749471;82;20958;-70
2021/06/01 07:46:37;;;;;;;3.72;2.58;;;;;;;13.44;78.32;100469.31;1749399;82;21005;-69
2021/06/01 07:49:06;;;;;;;4.83;3.12;;;;;;;13.45;78.34;100464.39;1749343;82;20854;-69
2021/06/01 07:51:33;;;;;;;7.55;2.62;;;;;;;13.49;78.34;100465.84;1749417;82;21302;-69
2021/06/01 07:54:03;;;;;;;5.33;2.65;;;;;;;13.51;78.43;100463.94;1749339;82;20970;-69
2021/06/01 07:56:32;;;;;;;4.80;3.42;;;;;;;13.56;78.38;100471.49;1749520;82;20987;-66
2021/06/01 07:58:58;;;;;;;3.20;3.00;;;;;;;13.56;78.37;100472.81;1749433;82;21017;-67
2021/06/01 08:01:25;;;;;;;6.92;3.30;;;;;;;13.54;78.12;100469.45;1749599;82;21530;-69
2021/06/01 08:03:53;;;;;;;4.10;2.90;;;;;;;13.52;78.06;100467.41;1749387;80;21506;-68
2021/06/01 08:06:20;;;;;;;7.42;3.40;;;;;;;13.49;77.93;100468.48;1749353;82;20997;-69
2021/06/01 08:08:48;;;;;;;4.72;2.92;;;;;;;13.47;77.98;100463.34;1749430;82;21005;-67
2021/06/01 08:11:14;;;;;;;3.58;2.45;;;;;;;13.46;78.28;100465.59;1749480;82;20945;-68
2021/06/01 08:13:43;;;;;;;3.00;2.22;;;;;;;13.44;78.51;100453.50;1749270;81;20902;-68
2021/06/01 08:16:10;;;;;;;5.65;2.67;;;;;;;13.47;78.50;100462.48;1749457;82;21062;-67
2021/06/01 08:18:48;;;;;;;5.33;2.72;;;;;;;13.45;78.49;100458.67;1749597;82;21023;-66
2021/06/01 08:21:10;;;;;;;18.17;9.70;;;;;;;13.48;78.47;100452.33;1747511;82;21447;-69
2021/06/01 08:23:36;;;;;;;11.88;3.30;;;;;;;13.48;78.44;100461.06;1749266;82;20938;-69
2021/06/01 08:26:03;;;;;;;5.00;2.98;;;;;;;13.48;78.07;100457.11;1749490;82;20895;-68
2021/06/01 08:28:31;;;;;;;5.45;2.85;;;;;;;13.47;78.00;100463.34;1750569;82;21098;-66
2021/06/01 08:31:03;;;;;;;9.65;4.35;;;;;;;13.49;78.10;100451.36;1750755;82;20934;-69
2021/06/01 08:33:29;;;;;;;3.75;2.70;;;;;;;13.50;78.17;100449.59;1751941;80;20902;-68
2021/06/01 08:35:58;;;;;;;4.25;2.50;;;;;;;13.52;78.40;100448.51;1751981;82;20954;-64
2021/06/01 08:38:24;;;;;;;3.42;2.62;;;;;;;13.58;78.07;100455.09;1750919;82;21380;-67
2021/06/01 08:40:52;;;;;;;5.97;2.65;;;;;;;13.60;78.04;100455.34;1750255;82;21488;-67
2021/06/01 08:43:23;;;;;;;2.77;2.42;;;;;;;13.62;77.85;100449.96;1749266;82;21515;-74
2021/06/01 08:45:54;;;;;;;4.37;3.10;;;;;;;13.62;77.65;100449.48;1749468;80;21110;-66
2021/06/01 08:48:21;;;;;;;3.55;2.77;;;;;;;13.60;77.69;100451.38;1749420;82;20997;-66
2021/06/01 08:50:53;;;;;;;2.08;1.92;;;;;;;13.57;77.50;100448.99;1749370;80;21036;-69
2021/06/01 08:53:20;;;;;;;3.08;2.55;;;;;;;13.53;77.40;100443.59;1749290;82;21166;-69
2021/06/01 08:55:49;;;;;;;2.80;2.52;;;;;;;13.48;77.59;100449.20;1749170;82;21431;-68
2021/06/01 08:58:18;;;;;;;5.83;2.72;;;;;;;13.47;77.96;100441.41;1749493;82;20883;-68
2021/06/01 09:00:46;;;;;;;3.80;3.30;;;;;;;13.50;78.06;100448.27;1749492;82;21414;-67
2021/06/01 09:03:22;;;;;;;2.80;2.60;;;;;;;13.45;77.99;100445.95;1749387;82;20858;-67
2021/06/01 09:12:00;;;;;;;3.50;2.85;;;;;;;13.41;78.16;100434.82;1725951;82;20965;-66
2021/06/01 09:22:38;;;;;;;3.45;3.15;;;;;;;13.31;78.82;100436.45;1735321;82;20919;-67
2021/06/01 09:25:18;;;;;;;3.17;2.87;;;;;;;13.33;78.68;100442.93;1735549;82;20919;-66
2021/06/01 09:27:54;;;;;;;5.03;3.10;;;;;;;13.31;78.91;100431.66;1735193;82;20942;-65
2021/06/01 09:30:55;;;;;;;3.75;3.15;;;;;;;13.33;78.84;100428.45;1735379;82;21447;-67
2021/06/01 09:33:30;;;;;;;5.85;3.22;;;;;;;13.31;78.81;100425.91;1735275;82;21088;-67
2021/06/01 09:36:01;;;;;;;3.90;2.72;;;;;;;13.30;78.96;100436.09;1735432;82;21033;-67
2021/06/01 09:38:43;;;;;;;3.40;3.10;;;;;;;13.31;78.77;100442.20;1735301;82;21443;-66
2021/06/01 09:41:18;;;;;;;3.55;3.08;;;;;;;13.29;78.60;100445.42;1735258;82;20942;-65
2021/06/01 09:44:03;;;;;;;3.20;2.80;;;;;;;13.30;78.95;100442.69;1734142;82;21404;-66
2021/06/01 09:46:37;;;;;;;4.37;3.40;;;;;;;13.31;78.82;100441.72;1735503;82;21612;-65
2021/06/01 09:49:18;;;;;;;3.90;2.92;;;;;;;13.32;78.93;100441.23;1735499;82;20871;-65
2021/06/01 09:51:55;;;;;;;6.17;3.50;;;;;;;13.34;78.90;100444.14;1735453;81;20994;-67
2021/06/01 09:54:33;;;;;;;5.65;3.70;;;;;;;13.34;78.73;100448.09;1735018;81;20990;-66
2021/06/01 09:57:17;;;;;;;3.83;3.35;;;;;;;13.33;78.63;100452.14;1735590;81;20907;-66
2021/06/01 10:00:15;;;;;;;3.85;3.40;;;;;;;13.31;78.50;100441.72;1735126;82;21145;-64
2021/06/01 10:02:43;;;;;;;6.97;4.65;;;;;;;13.29;78.70;100446.25;1735339;82;20911;-65
2021/06/01 10:05:14;;;;;;;6.55;3.22;;;;;;;13.29;78.99;100442.79;1735290;81;21048;-65
2021/06/01 10:07:41;;;;;;;3.55;3.25;;;;;;;13.27;78.73;100441.55;1735275;82;20947;-68
2021/06/01 10:10:33;;;;;;;3.95;3.52;;;;;;;13.26;78.77;100440.71;1735421;82;20931;-65
2021/06/01 10:13:06;;;;;;;5.03;4.53;;;;;;;13.26;78.50;100438.08;1735389;81;21524;-67
2021/06/01 10:15:51;;;;;;;5.90;5.30;;;;;;;13.25;79.12;100439.05;1735221;82;20899;-67
2021/06/01 10:18:58;;;;;;;6.42;4.53;;;;;;;13.23;79.11;100435.69;1752758;81;20905;-68
2021/06/01 10:21:27;;;;;;;5.40;4.15;;;;;;;13.24;79.33;100432.56;1752941;81;20945;-69
2021/06/01 10:23:54;;;;;;;6.72;5.60;;;;;;;13.27;79.41;100431.01;1753304;81;21478;-71
2021/06/01 10:26:24;;;;;;;5.67;4.33;;;;;;;13.26;79.49;100422.77;1753185;81;21065;-68
2021/06/01 10:28:51;;;;;;;4.60;3.90;;;;;;;13.27;79.35;100427.06;1752680;81;21423;-68
2021/06/01 10:31:18;;;;;;;5.30;4.12;;;;;;;13.31;79.46;100421.97;1752879;81;20989;-68
2021/06/01 10:33:49;;;;;;;5.00;4.50;;;;;;;13.34;79.60;100419.12;1752972;81;20893;-69
2021/06/01 10:42:28;;;;;;;6.25;4.33;;;;;;;13.37;79.57;100410.98;1752944;81;21324;-70
2021/06/01 10:50:45;;;;;;;5.83;5.20;;;;;;;13.39;79.20;100410.88;1731567;81;20993;-69
2021/06/01 10:53:23;;;;;;;5.72;4.87;;;;;;;13.35;79.29;100418.64;1752964;81;21094;-72
2021/06/01 10:55:55;;;;;;;4.80;4.15;;;;;;;13.34;79.46;100419.58;1752689;81;20937;-72
2021/06/01 10:58:41;;;;;;;6.30;5.30;;;;;;;13.34;79.71;100415.63;1753585;81;20989;-72
2021/06/01 11:04:30;;;;;;;4.72;4.33;;;;;;;13.35;79.34;100407.62;1752820;81;20997;-71
2021/06/01 11:09:44;;;;;;;5.05;3.98;;;;;;;13.41;79.55;100403.21;1752924;81;21024;-71
2021/06/01 11:12:26;;;;;;;4.20;3.80;;;;;;;13.46;79.75;100412.91;1752954;81;20993;-71
2021/06/01 11:14:55;;;;;;;5.12;4.08;;;;;;;13.52;79.66;100402.41;1752788;81;21709;-71
2021/06/01 11:17:41;;;;;;;4.37;3.98;;;;;;;13.51;79.35;100403.83;1752729;81;20918;-72
2021/06/01 11:20:20;;;;;;;4.83;4.10;;;;;;;13.46;79.32;100399.74;1753130;81;21685;-73
2021/06/01 11:22:59;;;;;;;4.30;3.75;;;;;;;13.44;78.78;100397.70;1680227;85;20961;-71
2021/06/01 11:33:40;;;;;;;5.60;5.10;;;;;;;13.47;79.19;100376.41;1682810;85;21657;-71
2021/06/01 11:36:12;;;;;;;5.40;4.83;;;;;;;13.41;79.06;100374.72;1682420;85;20906;-72
2021/06/01 11:39:01;;;;;;;4.90;4.50;;;;;;;13.39;79.23;100370.88;1682762;85;20943;-70
2021/06/01 11:43:57;;;;;;;5.03;4.50;;;;;;;13.37;79.46;100371.47;1682765;85;21426;-71
2021/06/01 11:46:33;;;;;;;4.78;4.37;;;;;;;13.33;79.53;100375.77;1682940;85;21090;-72
2021/06/01 11:51:46;;;;;;;4.55;4.00;;;;;;;13.33;79.70;100368.70;1682946;85;20946;-72
2021/06/01 11:54:16;;;;;;;6.37;3.85;;;;;;;13.32;79.76;100369.67;1659809;85;20970;-72
2021/06/01 12:02:37;;;;;;;4.85;4.20;;;;;;;13.34;79.22;100384.88;1752792;81;21469;-71
2021/06/01 12:22:03;;;;;;;4.62;3.42;;;;;;;13.22;78.86;100393.66;1753446;81;20961;-69
2021/06/01 12:24:37;;;;;;;3.70;3.40;;;;;;;13.18;78.99;100384.30;1683209;81;20997;-70
2021/06/01 12:27:25;;;;;;;3.75;3.45;;;;;;;13.16;78.99;100380.94;1753736;81;20929;-70
2021/06/01 12:32:33;;;;;;;3.05;2.65;;;;;;;13.19;79.62;100366.25;1752891;81;21076;-72
2021/06/01 12:43:36;;;;;;;2.62;2.42;;;;;;;13.13;79.71;100383.81;1752826;81;20985;-69
2021/06/01 13:20:53;;;;;;;4.28;3.30;;;;;;;12.50;80.93;100398.46;1691246;80;21089;-76
2021/06/01 13:32:13;;;;;;;3.15;2.20;;;;;;;12.40;81.33;100402.20;1701580;80;20975;-76
2021/06/01 13:56:36;;;;;;;4.35;4.05;;;;;;;12.08;81.80;100399.71;1701572;84;20919;-74
2021/06/01 13:59:12;;;;;;;3.37;3.08;;;;;;;12.09;82.22;100389.06;1703075;84;21459;-73
2021/06/01 14:02:07;;;;;;;3.85;3.08;;;;;;;12.10;82.04;100389.45;1666051;78;21437;-72
2021/06/01 14:09:52;;;;;;;3.52;3.12;;;;;;;12.05;82.14;100384.14;1619736;88;20911;-79
2021/06/01 14:38:10;;;;;;;2.72;2.20;;;;;;;12.30;81.59;100373.59;1702664;80;21189;-70
2021/06/01 15:31:15;;;;;;;1.05;0.62;;;;;;;12.05;82.26;100415.67;1678743;80;21155;-73
2021/06/01 15:50:20;;;;;;;0.70;0.68;;;;;;;11.83;82.50;100400.06;1744810;78;21330;-72
2021/06/01 16:11:22;;;;;;;1.20;0.40;;;;;;;11.76;82.46;100415.86;1760630;77;21303;-70